Time;durP1;ratioP1;P1;durP2;ratioP2;P2;SDS_P1;SDS_P2;PMS_P1;PMS_P2;Temp;Humidity;BMP_temperature;BMP_pressure;BME280_temperature;BME280_humidity;BME280_pressure;Samples;Min_cycle;Max_cycle;Signal;HPM_P1;HPM_P2
2022/01/31 00:00:39;;;;;;;10.68;4.25;;;4.60;99.90;;;;;;5036198;28;20158;-71
2022/01/31 00:03:05;;;;;;;12.85;5.03;;;4.60;99.90;;;;;;5036124;28;20047;-71
2022/01/31 00:05:30;;;;;;;8.32;4.13;;;4.60;99.90;;;;;;5034879;28;20045;-71
2022/01/31 00:07:56;;;;;;;16.38;6.03;;;4.60;99.90;;;;;;5037410;28;20059;-71
2022/01/31 00:10:28;;;;;;;14.13;3.85;;;4.60;99.90;;;;;;5030071;28;20124;-71
2022/01/31 00:15:23;;;;;;;11.60;5.25;;;4.50;99.90;;;;;;5036140;28;20049;-70
2022/01/31 00:17:49;;;;;;;14.52;5.22;;;4.50;99.90;;;;;;5036733;28;20071;-71
2022/01/31 00:20:14;;;;;;;10.63;4.72;;;4.50;99.90;;;;;;5035088;28;20049;-71
2022/01/31 00:22:40;;;;;;;11.52;4.85;;;4.50;99.90;;;;;;5035025;28;20620;-71
2022/01/31 00:25:06;;;;;;;10.52;3.88;;;4.50;99.90;;;;;;5034900;28;20044;-71
2022/01/31 00:27:32;;;;;;;14.13;4.05;;;4.50;99.90;;;;;;5031792;28;20041;-72
2022/01/31 00:29:57;;;;;;;11.50;4.78;;;4.50;99.90;;;;;;5033451;28;20049;-71
2022/01/31 00:32:23;;;;;;;14.55;4.57;;;4.50;99.90;;;;;;5033954;28;20049;-71
2022/01/31 00:34:48;;;;;;;16.70;5.68;;;4.50;99.90;;;;;;5034685;28;20076;-72
2022/01/31 00:37:14;;;;;;;14.88;4.90;;;4.40;99.90;;;;;;5067953;28;20582;-72
2022/01/31 00:39:39;;;;;;;9.90;4.93;;;4.60;99.90;;;;;;5037034;28;20131;-72
2022/01/31 00:42:07;;;;;;;10.43;4.80;;;4.60;99.90;;;;;;5033658;28;20068;-72
2022/01/31 00:44:46;;;;;;;9.18;4.82;;;4.60;99.90;;;;;;5036428;28;20049;-71
2022/01/31 00:47:21;;;;;;;17.98;5.50;;;4.60;99.90;;;;;;5025865;28;20048;-71
2022/01/31 00:49:52;;;;;;;14.13;4.75;;;4.60;99.90;;;;;;5068064;28;20989;-71
2022/01/31 00:52:18;;;;;;;8.23;5.30;;;4.60;99.90;;;;;;5037091;28;20468;-71
2022/01/31 00:54:45;;;;;;;9.20;5.13;;;4.60;99.90;;;;;;5038792;28;20049;-71
2022/01/31 00:57:11;;;;;;;10.48;5.57;;;4.60;99.90;;;;;;5038522;28;20500;-71
2022/01/31 00:59:36;;;;;;;12.52;7.68;;;4.60;99.90;;;;;;5037673;28;20049;-71
2022/01/31 01:02:03;;;;;;;15.15;7.80;;;4.60;99.90;;;;;;5034869;28;20095;-71
2022/01/31 01:04:28;;;;;;;11.90;6.43;;;4.60;99.90;;;;;;5034893;28;20055;-72
2022/01/31 01:06:54;;;;;;;8.57;4.55;;;4.60;99.90;;;;;;5037022;28;20049;-71
2022/01/31 01:09:19;;;;;;;13.65;5.30;;;4.70;99.90;;;;;;5034264;28;20048;-72
2022/01/31 01:11:45;;;;;;;9.68;5.32;;;4.70;99.90;;;;;;5037412;28;20049;-72
2022/01/31 01:14:11;;;;;;;15.77;5.70;;;4.60;99.90;;;;;;5036316;28;20037;-71
2022/01/31 01:16:36;;;;;;;13.13;6.10;;;4.60;99.90;;;;;;5036075;28;20575;-71
2022/01/31 01:19:03;;;;;;;11.25;6.32;;;4.80;99.90;;;;;;5036767;28;20048;-72
2022/01/31 01:21:29;;;;;;;13.30;5.20;;;4.60;99.90;;;;;;5034796;28;20144;-72
2022/01/31 01:23:54;;;;;;;13.85;6.57;;;4.60;99.90;;;;;;5036637;28;20132;-72
2022/01/31 01:26:20;;;;;;;16.83;6.30;;;4.50;99.90;;;;;;5037607;28;20049;-72
2022/01/31 01:28:46;;;;;;;12.45;7.55;;;4.60;99.90;;;;;;5036651;28;20045;-72
2022/01/31 01:31:12;;;;;;;15.32;6.53;;;4.50;99.90;;;;;;5035545;28;20052;-73
2022/01/31 01:33:40;;;;;;;16.35;6.50;;;4.50;99.90;;;;;;5036908;28;20041;-73
2022/01/31 01:36:07;;;;;;;13.73;6.65;;;4.50;99.90;;;;;;5069269;28;20213;-73
2022/01/31 01:38:33;;;;;;;13.85;6.70;;;4.50;99.90;;;;;;5036308;28;20049;-77
2022/01/31 01:41:00;;;;;;;20.70;7.90;;;4.50;99.90;;;;;;5035654;28;20057;-80
2022/01/31 01:43:27;;;;;;;14.80;8.30;;;4.50;99.90;;;;;;5035324;28;20063;-79
2022/01/31 01:45:54;;;;;;;12.00;7.07;;;4.40;99.90;;;;;;5035831;28;20056;-79
2022/01/31 01:48:20;;;;;;;15.07;8.05;;;4.30;99.90;;;;;;5035536;28;20650;-76
2022/01/31 01:50:47;;;;;;;23.38;9.35;;;4.30;99.90;;;;;;5036555;28;20785;-74
2022/01/31 01:53:12;;;;;;;19.77;8.50;;;4.20;99.90;;;;;;5032986;28;20524;-73
2022/01/31 01:55:38;;;;;;;16.08;9.18;;;4.20;99.90;;;;;;5064233;28;20048;-73
2022/01/31 01:58:12;;;;;;;13.07;8.40;;;4.10;99.90;;;;;;5034247;28;20037;-73
2022/01/31 02:00:52;;;;;;;16.23;9.77;;;4.10;99.90;;;;;;5036393;28;20125;-73
2022/01/31 02:03:19;;;;;;;15.90;8.82;;;3.50;99.90;;;;;;5035943;28;20103;-73
2022/01/31 02:05:46;;;;;;;19.38;10.52;;;4.10;99.90;;;;;;5034954;28;20040;-73
2022/01/31 02:08:13;;;;;;;16.83;9.90;;;4.10;99.90;;;;;;5035963;28;20060;-72
2022/01/31 02:10:40;;;;;;;14.35;9.10;;;4.00;99.90;;;;;;5035161;28;20061;-72
2022/01/31 02:13:07;;;;;;;15.75;9.35;;;3.90;99.90;;;;;;5036321;28;20048;-70
2022/01/31 02:15:34;;;;;;;16.13;10.30;;;3.90;99.90;;;;;;5035568;28;20048;-70
2022/01/31 02:17:59;;;;;;;14.45;8.82;;;3.80;99.90;;;;;;5038034;28;20420;-70
2022/01/31 02:20:25;;;;;;;18.23;9.25;;;3.80;99.90;;;;;;5036656;28;20049;-71
2022/01/31 02:22:51;;;;;;;17.85;9.57;;;3.80;99.90;;;;;;5037477;28;20073;-70
2022/01/31 02:25:17;;;;;;;19.33;10.95;;;3.80;99.90;;;;;;5035324;28;20064;-70
2022/01/31 02:27:44;;;;;;;13.15;9.55;;;3.80;99.90;;;;;;5035348;28;20049;-70
2022/01/31 02:30:15;;;;;;;13.30;8.43;;;3.80;99.90;;;;;;5037306;28;20107;-71
2022/01/31 02:32:41;;;;;;;11.52;8.50;;;3.70;99.90;;;;;;5039141;28;20444;-70
2022/01/31 02:35:08;;;;;;;11.45;8.90;;;3.70;99.90;;;;;;5040321;28;20040;-70
2022/01/31 02:37:34;;;;;;;10.23;8.65;;;3.70;99.90;;;;;;5039018;28;20144;-71
2022/01/31 02:40:00;;;;;;;16.27;10.77;;;3.70;99.90;;;;;;5038607;28;20040;-71
2022/01/31 02:42:26;;;;;;;23.95;12.30;;;3.70;99.90;;;;;;5038174;28;20056;-71
2022/01/31 02:44:52;;;;;;;13.88;8.95;;;3.80;99.90;;;;;;5064175;28;20057;-71
2022/01/31 02:47:25;;;;;;;14.25;10.25;;;3.80;99.90;;;;;;5025558;28;20504;-71
2022/01/31 02:49:57;;;;;;;15.50;10.27;;;3.80;99.90;;;;;;5061245;28;20053;-70
2022/01/31 02:52:24;;;;;;;15.85;8.75;;;3.70;99.90;;;;;;5040493;28;20684;-70
2022/01/31 02:54:50;;;;;;;15.85;8.95;;;3.80;99.90;;;;;;5039614;28;20060;-71
2022/01/31 02:57:15;;;;;;;13.45;9.50;;;3.80;99.90;;;;;;5040677;28;20044;-70
2022/01/31 02:59:41;;;;;;;12.93;8.98;;;3.80;99.90;;;;;;5035308;28;20048;-70
2022/01/31 03:02:07;;;;;;;11.73;8.68;;;3.80;99.90;;;;;;5039197;28;20737;-69
2022/01/31 03:04:33;;;;;;;11.38;8.55;;;3.80;99.90;;;;;;5039707;28;20053;-70
2022/01/31 03:06:58;;;;;;;12.43;8.27;;;3.80;99.90;;;;;;5041074;28;20040;-70
2022/01/31 03:09:24;;;;;;;11.77;7.75;;;3.80;99.90;;;;;;5040037;28;20049;-70
2022/01/31 03:11:50;;;;;;;10.65;8.57;;;3.90;99.90;;;;;;5039199;28;20052;-70
2022/01/31 03:14:16;;;;;;;12.07;8.15;;;3.90;99.90;;;;;;5039205;28;20056;-70
2022/01/31 03:16:44;;;;;;;8.75;7.82;;;3.90;99.90;;;;;;5035395;28;20045;-71
2022/01/31 03:19:09;;;;;;;12.27;8.30;;;3.90;99.90;;;;;;5038660;28;20130;-70
2022/01/31 03:21:36;;;;;;;9.45;6.88;;;4.00;99.90;;;;;;5037676;28;20757;-70
2022/01/31 03:24:02;;;;;;;12.82;8.77;;;4.00;99.90;;;;;;5040319;28;20122;-70
2022/01/31 03:26:28;;;;;;;10.43;7.35;;;4.00;99.90;;;;;;5039334;28;20099;-70
2022/01/31 03:28:53;;;;;;;8.77;7.05;;;4.00;99.90;;;;;;5037787;28;20088;-69
2022/01/31 03:31:20;;;;;;;11.35;6.35;;;4.00;99.90;;;;;;5039810;28;20106;-70
2022/01/31 03:33:47;;;;;;;7.93;6.32;;;4.10;99.90;;;;;;5037583;28;20563;-70
2022/01/31 03:36:13;;;;;;;12.82;5.93;;;4.10;99.90;;;;;;5040317;28;20076;-70
2022/01/31 03:38:41;;;;;;;11.60;6.28;;;4.20;99.90;;;;;;5037559;28;20214;-70
2022/01/31 03:41:19;;;;;;;8.80;7.07;;;4.20;99.90;;;;;;5038992;28;20049;-70
2022/01/31 03:43:44;;;;;;;8.00;5.53;;;4.30;99.90;;;;;;5037850;28;20554;-70
2022/01/31 03:46:10;;;;;;;7.57;5.85;;;4.30;99.90;;;;;;5040516;28;20045;-70
2022/01/31 03:48:36;;;;;;;9.45;6.30;;;4.30;99.90;;;;;;5039352;28;20097;-70
2022/01/31 03:51:03;;;;;;;9.23;5.47;;;4.40;99.90;;;;;;5038377;28;20119;-71
2022/01/31 03:53:30;;;;;;;10.48;5.55;;;4.50;99.90;;;;;;5036713;28;20130;-70
2022/01/31 03:55:56;;;;;;;9.07;5.53;;;4.60;99.90;;;;;;5037744;28;20075;-69
2022/01/31 03:58:21;;;;;;;10.00;5.15;;;4.70;99.90;;;;;;5038013;28;20266;-70
2022/01/31 04:00:47;;;;;;;8.63;4.95;;;4.80;99.90;;;;;;5038121;28;20176;-70
2022/01/31 04:03:13;;;;;;;11.10;5.03;;;4.90;99.90;;;;;;5037390;28;20049;-70
2022/01/31 04:05:39;;;;;;;9.02;5.80;;;5.00;99.90;;;;;;5038638;28;20191;-70
2022/01/31 04:08:09;;;;;;;11.25;4.90;;;5.10;99.90;;;;;;5038500;28;20047;-70
2022/01/31 04:10:35;;;;;;;10.68;4.55;;;5.20;99.90;;;;;;5037359;28;20059;-70
2022/01/31 04:13:01;;;;;;;8.35;4.50;;;5.20;99.90;;;;;;5039233;28;20084;-71
2022/01/31 04:15:27;;;;;;;12.57;5.07;;;5.30;99.90;;;;;;5037232;28;20160;-71
2022/01/31 04:17:52;;;;;;;11.20;5.07;;;5.40;99.90;;;;;;5040328;28;20064;-71
2022/01/31 04:20:19;;;;;;;15.20;5.07;;;5.50;99.90;;;;;;5036865;28;20151;-71
2022/01/31 04:22:52;;;;;;;12.95;3.65;;;5.60;99.90;;;;;;5039500;28;20057;-70
2022/01/31 04:25:29;;;;;;;16.45;4.38;;;5.70;99.90;;;;;;5036935;28;20075;-71
2022/01/31 04:28:04;;;;;;;8.98;4.13;;;5.80;99.90;;;;;;5036952;28;20057;-71
2022/01/31 04:30:32;;;;;;;6.70;4.25;;;5.80;99.90;;;;;;5037458;28;20045;-71
2022/01/31 04:32:57;;;;;;;11.20;3.75;;;5.80;99.90;;;;;;5069604;28;20045;-72
2022/01/31 04:35:23;;;;;;;14.43;3.30;;;5.90;99.90;;;;;;5035945;28;20060;-72
2022/01/31 04:37:49;;;;;;;13.43;3.20;;;5.90;99.90;;;;;;5037192;28;20904;-71
2022/01/31 04:40:15;;;;;;;6.45;2.08;;;5.90;99.90;;;;;;5036877;28;20052;-73
2022/01/31 04:42:43;;;;;;;5.93;2.28;;;5.90;99.90;;;;;;5038000;28;20040;-70
2022/01/31 04:45:10;;;;;;;7.75;2.78;;;5.80;99.90;;;;;;5037860;28;20057;-71
2022/01/31 04:47:35;;;;;;;5.25;1.90;;;5.70;99.90;;;;;;5037272;28;20049;-71
2022/01/31 04:50:01;;;;;;;7.18;2.55;;;5.70;99.90;;;;;;5036871;28;20718;-71
2022/01/31 04:52:27;;;;;;;10.23;3.05;;;5.70;99.90;;;;;;5038951;28;20060;-70
2022/01/31 04:54:52;;;;;;;8.75;2.60;;;5.70;99.90;;;;;;5038907;28;20258;-70
2022/01/31 04:57:18;;;;;;;10.43;3.13;;;5.70;99.90;;;;;;5037222;28;20137;-70
2022/01/31 04:59:44;;;;;;;13.80;3.22;;;5.60;99.90;;;;;;5038576;28;20083;-70
2022/01/31 05:02:10;;;;;;;11.77;3.30;;;5.60;99.90;;;;;;5037146;28;20057;-70
2022/01/31 05:04:36;;;;;;;8.75;3.75;;;5.60;99.90;;;;;;5038729;28;20143;-70
2022/01/31 05:07:01;;;;;;;6.03;2.55;;;5.60;99.90;;;;;;5037818;28;20049;-70
2022/01/31 05:09:27;;;;;;;5.03;3.25;;;5.60;99.90;;;;;;5036994;28;20098;-70
2022/01/31 05:11:52;;;;;;;10.45;3.17;;;5.60;99.90;;;;;;5037420;28;20056;-71
2022/01/31 05:14:18;;;;;;;9.52;3.55;;;5.60;99.90;;;;;;5038083;28;20052;-72
2022/01/31 05:16:44;;;;;;;13.80;3.33;;;5.60;99.90;;;;;;5036551;28;20052;-71
2022/01/31 05:19:10;;;;;;;11.98;3.53;;;5.60;99.90;;;;;;5037598;28;20076;-71
2022/01/31 05:21:36;;;;;;;8.95;3.80;;;5.60;99.90;;;;;;5037493;28;20660;-72
2022/01/31 05:24:03;;;;;;;11.18;3.42;;;5.60;99.90;;;;;;5036217;28;20057;-72
2022/01/31 05:26:28;;;;;;;7.70;2.78;;;5.60;99.90;;;;;;5038157;28;20041;-75
2022/01/31 05:28:54;;;;;;;8.15;2.50;;;5.70;99.90;;;;;;5039052;28;20095;-73
2022/01/31 05:31:20;;;;;;;4.97;1.25;;;5.60;99.90;;;;;;5036800;28;20049;-71
2022/01/31 05:33:45;;;;;;;3.40;1.27;;;5.40;99.90;;;;;;5038545;28;20055;-73
2022/01/31 05:36:11;;;;;;;4.50;1.55;;;5.40;99.90;;;;;;5037589;28;20130;-74
2022/01/31 05:38:39;;;;;;;5.22;1.85;;;5.40;99.90;;;;;;5038279;28;20128;-73
2022/01/31 05:41:07;;;;;;;1.85;1.05;;;5.30;99.90;;;;;;5037172;28;20119;-73
2022/01/31 05:43:34;;;;;;;4.55;1.55;;;5.20;99.90;;;;;;5017323;28;20037;-73
2022/01/31 05:45:59;;;;;;;3.38;1.48;;;5.30;99.90;;;;;;5017645;28;20058;-72
2022/01/31 05:48:25;;;;;;;2.28;1.23;;;5.20;99.90;;;;;;5024811;28;20060;-72
2022/01/31 05:50:51;;;;;;;3.00;2.03;;;5.20;99.90;;;;;;5036276;28;20040;-71
2022/01/31 05:53:17;;;;;;;4.07;1.35;;;5.20;99.90;;;;;;5037082;28;20804;-72
2022/01/31 05:55:44;;;;;;;2.47;1.17;;;5.20;99.90;;;;;;5036690;28;20044;-71
2022/01/31 05:58:10;;;;;;;2.95;1.15;;;5.20;99.90;;;;;;5037163;28;20119;-71
2022/01/31 06:00:37;;;;;;;1.77;1.60;;;5.10;99.90;;;;;;5036508;28;20107;-72
2022/01/31 06:03:03;;;;;;;4.50;1.95;;;5.20;99.90;;;;;;5037378;28;20456;-72
2022/01/31 06:05:29;;;;;;;5.63;2.17;;;5.20;99.90;;;;;;5038518;28;20045;-72
2022/01/31 06:07:55;;;;;;;7.30;2.35;;;5.20;99.90;;;;;;5044346;28;20060;-73
2022/01/31 06:10:23;;;;;;;7.53;2.50;;;5.20;99.90;;;;;;5045177;28;20152;-73
2022/01/31 06:12:50;;;;;;;6.75;1.60;;;5.20;99.90;;;;;;5043467;28;20052;-73
2022/01/31 06:15:16;;;;;;;7.60;2.08;;;5.20;99.90;;;;;;5043586;28;20040;-73
2022/01/31 06:17:42;;;;;;;7.60;1.67;;;5.30;99.90;;;;;;5044251;28;20084;-77
2022/01/31 06:20:07;;;;;;;4.88;2.05;;;5.30;99.90;;;;;;5043836;28;20126;-77
2022/01/31 06:22:33;;;;;;;2.95;1.40;;;5.20;99.90;;;;;;5042131;28;20045;-74
2022/01/31 06:24:58;;;;;;;3.28;1.77;;;5.30;99.90;;;;;;5044225;28;20247;-74
2022/01/31 06:27:24;;;;;;;3.75;1.88;;;5.30;99.90;;;;;;5073982;28;20143;-74
2022/01/31 06:29:49;;;;;;;4.13;1.90;;;5.30;99.90;;;;;;5041631;28;20459;-74
2022/01/31 06:32:17;;;;;;;3.72;1.70;;;5.30;99.90;;;;;;5072481;28;20548;-73
2022/01/31 06:34:42;;;;;;;6.93;1.95;;;5.30;99.90;;;;;;5071618;28;20041;-73
2022/01/31 06:37:08;;;;;;;5.25;1.77;;;5.10;99.90;;;;;;5040921;28;20424;-73
2022/01/31 06:39:33;;;;;;;8.38;2.15;;;5.30;99.90;;;;;;5040907;28;20040;-75
2022/01/31 06:41:59;;;;;;;4.75;2.50;;;5.30;99.90;;;;;;5039087;28;20057;-73
2022/01/31 06:44:24;;;;;;;5.82;2.17;;;5.30;99.90;;;;;;5074972;28;20063;-71
2022/01/31 06:46:50;;;;;;;5.85;2.08;;;5.40;99.90;;;;;;5039656;28;20091;-74
2022/01/31 06:49:15;;;;;;;3.88;1.80;;;5.40;99.90;;;;;;5042905;28;20079;-74
2022/01/31 06:51:41;;;;;;;3.20;1.83;;;5.40;99.90;;;;;;5039503;28;20041;-74
2022/01/31 06:54:07;;;;;;;6.85;2.85;;;5.40;99.90;;;;;;5071993;28;20131;-74
2022/01/31 06:56:38;;;;;;;4.35;1.77;;;5.40;99.90;;;;;;5040219;28;20571;-74
2022/01/31 06:59:04;;;;;;;4.78;1.75;;;5.40;99.90;;;;;;5042245;28;20056;-73
2022/01/31 07:01:30;;;;;;;5.78;1.52;;;5.40;99.90;;;;;;5039194;28;20052;-74
2022/01/31 07:03:57;;;;;;;5.57;1.95;;;5.40;99.90;;;;;;5070721;28;20056;-74
2022/01/31 07:06:26;;;;;;;6.40;2.22;;;5.40;99.90;;;;;;5038289;28;20053;-73
2022/01/31 07:08:52;;;;;;;4.10;1.85;;;5.50;99.90;;;;;;5039943;28;20764;-73
2022/01/31 07:11:23;;;;;;;3.03;1.13;;;5.40;99.90;;;;;;5033457;28;20057;-73
2022/01/31 07:13:53;;;;;;;1.10;1.02;;;5.50;99.90;;;;;;5071596;28;20052;-73
2022/01/31 07:16:19;;;;;;;6.05;1.83;;;5.50;99.90;;;;;;5068671;28;20045;-73
2022/01/31 07:18:45;;;;;;;6.50;1.73;;;5.40;99.90;;;;;;5064103;28;20057;-73
2022/01/31 07:21:14;;;;;;;5.32;1.40;;;5.50;99.90;;;;;;5066810;28;20049;-73
2022/01/31 07:24:02;;;;;;;2.28;1.50;;;5.50;99.90;;;;;;5033552;28;20545;-73
2022/01/31 07:26:25;;;;;;;3.85;1.65;;;5.80;99.90;;;;;;5030431;28;20045;-73
2022/01/31 07:28:50;;;;;;;2.38;1.63;;;5.50;99.90;;;;;;5036314;28;20572;-73
2022/01/31 07:31:16;;;;;;;5.60;1.35;;;5.50;99.90;;;;;;5069378;28;20701;-72
2022/01/31 07:33:42;;;;;;;5.00;1.58;;;5.50;99.90;;;;;;4678422;28;10000013;-73
2022/01/31 07:36:08;;;;;;;3.40;2.05;;;5.60;99.90;;;;;;4326359;28;10000743;-73
2022/01/31 07:38:34;;;;;;;3.22;1.98;;;5.50;99.90;;;;;;4674892;28;10000147;-73
2022/01/31 07:41:00;;;;;;;4.55;1.60;;;5.50;99.90;;;;;;5033227;28;20087;-72
2022/01/31 07:43:25;;;;;;;4.45;1.80;;;5.50;99.90;;;;;;5031008;28;20053;-73
2022/01/31 07:45:51;;;;;;;8.38;2.95;;;5.50;99.90;;;;;;5029793;28;20055;-72
2022/01/31 07:48:16;;;;;;;3.92;1.52;;;5.60;99.90;;;;;;5061266;28;20045;-72
2022/01/31 07:50:42;;;;;;;13.60;2.63;;;5.70;99.90;;;;;;5028810;28;20048;-73
2022/01/31 07:53:09;;;;;;;4.25;2.17;;;5.70;99.90;;;;;;5029876;28;20432;-73
2022/01/31 07:55:35;;;;;;;4.32;2.05;;;5.70;99.90;;;;;;5026203;28;20045;-73
2022/01/31 07:58:01;;;;;;;7.13;2.83;;;5.60;99.90;;;;;;5033016;28;20045;-73
2022/01/31 08:00:27;;;;;;;6.18;1.92;;;5.70;99.90;;;;;;5032239;28;20052;-73
2022/01/31 08:02:53;;;;;;;4.95;2.35;;;5.70;99.90;;;;;;5031007;28;20052;-73
2022/01/31 08:05:21;;;;;;;4.22;1.70;;;5.80;99.90;;;;;;5060121;28;20614;-74
2022/01/31 08:07:48;;;;;;;8.25;3.38;;;5.70;99.90;;;;;;5032777;28;20056;-74
2022/01/31 08:10:15;;;;;;;4.47;1.88;;;5.80;99.90;;;;;;5034319;28;20041;-73
2022/01/31 08:12:42;;;;;;;2.63;1.45;;;5.70;99.90;;;;;;5029297;28;20040;-74
2022/01/31 08:15:13;;;;;;;3.50;1.85;;;5.80;99.90;;;;;;5034915;28;20048;-73
2022/01/31 08:17:39;;;;;;;7.10;2.17;;;5.80;99.90;;;;;;5032382;28;20107;-74
2022/01/31 08:20:05;;;;;;;3.05;1.70;;;5.70;99.90;;;;;;5035803;28;20405;-74
2022/01/31 08:22:31;;;;;;;1.73;1.38;;;5.70;99.90;;;;;;5068297;28;20037;-73
2022/01/31 08:24:57;;;;;;;3.75;1.52;;;5.70;99.90;;;;;;5031527;28;20043;-73
2022/01/31 08:27:22;;;;;;;9.25;1.77;;;5.70;99.90;;;;;;5035660;28;20044;-74
2022/01/31 08:29:48;;;;;;;5.40;1.38;;;5.70;99.90;;;;;;5065250;28;20401;-74
2022/01/31 08:32:18;;;;;;;2.85;2.03;;;5.80;99.90;;;;;;5035675;28;20092;-74
2022/01/31 08:37:29;;;;;;;5.18;1.50;;;5.90;99.90;;;;;;5030755;28;20128;-73
2022/01/31 08:39:54;;;;;;;4.47;2.00;;;6.00;99.90;;;;;;5032824;28;20059;-74
2022/01/31 08:42:20;;;;;;;2.60;1.77;;;6.00;99.90;;;;;;5032730;28;20040;-74
2022/01/31 08:44:47;;;;;;;4.70;2.00;;;6.10;99.90;;;;;;5035181;28;20052;-73
2022/01/31 08:47:13;;;;;;;5.38;1.85;;;6.10;99.90;;;;;;5034677;28;20044;-74
2022/01/31 08:49:39;;;;;;;3.97;1.00;;;6.20;99.90;;;;;;5034624;28;20044;-74
2022/01/31 08:52:05;;;;;;;4.47;1.90;;;6.20;99.90;;;;;;5032624;28;20049;-74
2022/01/31 08:54:31;;;;;;;8.10;1.88;;;6.20;99.90;;;;;;5034019;28;20187;-74
2022/01/31 08:56:57;;;;;;;8.88;2.22;;;6.20;99.90;;;;;;5031869;28;20487;-74
2022/01/31 08:59:25;;;;;;;5.60;2.45;;;6.40;99.90;;;;;;5066632;28;20110;-73
2022/01/31 09:02:13;;;;;;;4.78;1.40;;;6.40;99.90;;;;;;5032695;28;20052;-74
2022/01/31 09:04:49;;;;;;;2.47;1.45;;;6.30;99.90;;;;;;5034122;28;20045;-73
2022/01/31 09:07:16;;;;;;;4.82;1.73;;;6.40;99.90;;;;;;5066706;28;20114;-74
2022/01/31 09:09:43;;;;;;;4.18;2.58;;;6.40;99.90;;;;;;5031619;28;20528;-74
2022/01/31 09:12:10;;;;;;;7.20;2.38;;;6.40;99.90;;;;;;5066451;28;20072;-73
2022/01/31 09:14:37;;;;;;;4.13;2.00;;;6.60;99.90;;;;;;5033032;28;20045;-73
2022/01/31 09:17:04;;;;;;;5.95;2.30;;;6.70;99.90;;;;;;5034998;28;20052;-72
2022/01/31 09:19:30;;;;;;;6.55;2.35;;;6.80;99.90;;;;;;5066076;28;20077;-73
2022/01/31 09:21:55;;;;;;;4.35;1.40;;;6.80;99.90;;;;;;5029877;28;20226;-72
2022/01/31 09:24:21;;;;;;;5.00;2.15;;;6.70;99.90;;;;;;5029204;28;20041;-72
2022/01/31 09:26:47;;;;;;;2.90;2.00;;;6.60;99.90;;;;;;5063880;28;20136;-72
2022/01/31 09:29:13;;;;;;;4.28;1.50;;;6.50;99.90;;;;;;5031434;28;20057;-72
2022/01/31 09:31:38;;;;;;;5.13;1.88;;;6.50;99.90;;;;;;5033224;28;20132;-73
2022/01/31 09:34:06;;;;;;;2.80;1.45;;;6.60;99.90;;;;;;5029938;28;20049;-73
2022/01/31 09:36:32;;;;;;;4.15;1.50;;;6.80;99.90;;;;;;5033846;28;20052;-71
2022/01/31 09:38:57;;;;;;;2.95;1.55;;;6.90;99.90;;;;;;5031472;28;20061;-73
2022/01/31 09:41:25;;;;;;;3.10;1.65;;;6.90;99.90;;;;;;5026989;28;20168;-72
2022/01/31 09:44:08;;;;;;;2.38;1.25;;;6.90;99.90;;;;;;5029177;28;20044;-72
2022/01/31 09:47:06;;;;;;;5.28;1.67;;;6.90;99.90;;;;;;5033587;28;20144;-72
2022/01/31 09:49:22;;;;;;;5.00;2.13;;;6.90;99.90;;;;;;5033097;28;20083;-72
2022/01/31 09:51:48;;;;;;;5.78;1.83;;;7.00;99.90;;;;;;5035260;28;20049;-72
2022/01/31 09:54:14;;;;;;;4.25;2.38;;;7.10;99.90;;;;;;5033323;28;20061;-72
2022/01/31 09:56:42;;;;;;;2.97;2.00;;;7.10;99.90;;;;;;5030851;28;20060;-72
2022/01/31 09:59:10;;;;;;;3.67;1.83;;;7.10;99.90;;;;;;5032963;28;20234;-73
2022/01/31 10:01:41;;;;;;;14.38;3.08;;;7.10;99.90;;;;;;5063010;28;20044;-72
2022/01/31 10:04:18;;;;;;;5.32;1.33;;;7.10;99.90;;;;;;5031024;28;20071;-73
2022/01/31 10:06:46;;;;;;;3.67;1.90;;;7.00;99.90;;;;;;5028650;28;20140;-72
2022/01/31 10:09:27;;;;;;;6.07;1.80;;;7.00;99.90;;;;;;5026188;28;20049;-73
2022/01/31 10:11:57;;;;;;;5.97;1.92;;;7.10;99.90;;;;;;5030368;28;20064;-72
2022/01/31 10:17:29;;;;;;;3.35;1.08;;;7.10;99.90;;;;;;5014592;28;20056;-72
2022/01/31 10:19:57;;;;;;;4.05;1.20;;;7.20;99.90;;;;;;5014654;28;20055;-72
2022/01/31 10:22:25;;;;;;;2.95;1.40;;;7.20;99.90;;;;;;5065903;28;20152;-72
2022/01/31 10:24:54;;;;;;;4.07;1.40;;;7.30;99.90;;;;;;5032679;28;20087;-72
2022/01/31 10:27:27;;;;;;;3.58;1.75;;;7.30;99.90;;;;;;5032833;28;20254;-72
2022/01/31 10:30:08;;;;;;;6.63;2.00;;;7.40;99.90;;;;;;5033322;28;20053;-72
2022/01/31 10:32:36;;;;;;;9.02;1.70;;;7.40;99.90;;;;;;5029773;28;20056;-72
2022/01/31 10:35:11;;;;;;;4.00;1.73;;;7.50;99.90;;;;;;5030893;28;20818;-72
2022/01/31 10:37:40;;;;;;;4.95;1.90;;;7.60;99.90;;;;;;5027514;28;20036;-72
2022/01/31 10:54:10;;;;;;;7.40;2.20;;;8.00;99.90;;;;;;5026908;28;20061;-68
2022/01/31 10:56:44;;;;;;;4.78;1.83;;;7.90;99.90;;;;;;5068189;28;20088;-72
2022/01/31 10:59:15;;;;;;;6.57;5.38;;;7.90;99.90;;;;;;5030444;28;20587;-72
2022/01/31 11:01:45;;;;;;;11.48;2.67;;;7.90;99.90;;;;;;5035461;28;20049;-72
2022/01/31 11:04:12;;;;;;;8.50;2.67;;;7.90;99.90;;;;;;5032747;28;20843;-72
2022/01/31 11:06:49;;;;;;;7.90;2.05;;;7.90;99.90;;;;;;5063444;28;20716;-72
2022/01/31 11:09:17;;;;;;;5.75;1.90;;;7.90;99.90;;;;;;5031753;28;20067;-72
2022/01/31 11:11:49;;;;;;;4.47;2.80;;;8.00;99.90;;;;;;5032514;28;20072;-72
2022/01/31 11:14:16;;;;;;;12.90;2.97;;;8.00;99.90;;;;;;5031227;28;20052;-72
2022/01/31 11:16:44;;;;;;;8.18;3.42;;;8.00;99.90;;;;;;5031491;28;20051;-72
2022/01/31 11:19:11;;;;;;;7.25;2.00;;;8.00;99.90;;;;;;5035384;28;20041;-72
2022/01/31 11:21:40;;;;;;;5.25;2.33;;;8.00;99.90;;;;;;5032402;28;20464;-72
2022/01/31 11:24:19;;;;;;;6.55;2.20;;;8.00;99.90;;;;;;5034913;28;20045;-72
2022/01/31 11:27:01;;;;;;;6.95;2.42;;;8.00;99.90;;;;;;5033916;28;20044;-72
2022/01/31 11:29:27;;;;;;;3.28;1.80;;;8.00;99.90;;;;;;5034955;28;20581;-72
2022/01/31 11:31:54;;;;;;;8.55;2.15;;;8.10;99.90;;;;;;5036727;28;20142;-76
2022/01/31 11:34:22;;;;;;;7.07;2.35;;;8.20;99.90;;;;;;5037038;28;20084;-71
2022/01/31 11:36:47;;;;;;;7.45;2.17;;;8.20;99.90;;;;;;5037413;28;20049;-73
2022/01/31 11:39:15;;;;;;;7.00;2.42;;;8.30;99.90;;;;;;5038144;28;20114;-72
2022/01/31 11:41:49;;;;;;;6.50;2.42;;;8.30;99.90;;;;;;5033259;28;20059;-72
2022/01/31 11:44:42;;;;;;;9.02;2.50;;;8.30;99.90;;;;;;5071335;28;20057;-72
2022/01/31 11:47:08;;;;;;;10.25;3.50;;;8.20;99.90;;;;;;5039485;28;20041;-73
2022/01/31 11:49:55;;;;;;;10.38;2.97;;;8.30;99.90;;;;;;5036322;28;20056;-73
2022/01/31 11:52:22;;;;;;;5.72;3.20;;;8.30;99.90;;;;;;5038515;28;20063;-73
2022/01/31 11:54:52;;;;;;;8.50;3.45;;;8.30;99.90;;;;;;5040038;28;20772;-73
2022/01/31 11:57:23;;;;;;;5.38;2.85;;;8.40;99.90;;;;;;5039074;28;20036;-73
2022/01/31 11:59:55;;;;;;;5.18;2.40;;;8.40;99.90;;;;;;5038933;28;20048;-73
2022/01/31 12:02:23;;;;;;;4.15;2.47;;;8.40;99.90;;;;;;5038278;28;20106;-73
2022/01/31 12:04:50;;;;;;;6.82;2.25;;;8.40;99.90;;;;;;5039648;28;20659;-73
2022/01/31 12:07:39;;;;;;;8.52;2.58;;;8.40;99.90;;;;;;5036856;28;20174;-73
2022/01/31 12:10:30;;;;;;;7.35;2.65;;;8.40;99.90;;;;;;5039105;28;20082;-74
2022/01/31 12:13:11;;;;;;;9.50;2.10;;;8.40;99.90;;;;;;5040171;28;20048;-74
2022/01/31 12:15:48;;;;;;;8.88;2.80;;;8.40;99.90;;;;;;5039282;28;20053;-73
2022/01/31 12:24:09;;;;;;;7.40;3.78;;;8.40;99.90;;;;;;5038037;28;20057;-74
2022/01/31 12:26:39;;;;;;;11.00;3.50;;;8.50;99.90;;;;;;5036877;28;20152;-73
2022/01/31 12:29:12;;;;;;;10.48;2.53;;;8.40;99.90;;;;;;5028677;28;20053;-74
2022/01/31 12:31:45;;;;;;;7.88;2.45;;;8.30;99.90;;;;;;5035687;28;20055;-74
2022/01/31 12:34:33;;;;;;;10.10;3.72;;;8.30;99.90;;;;;;5037635;28;20048;-74
2022/01/31 12:37:05;;;;;;;7.40;3.30;;;8.40;99.90;;;;;;5037566;28;20094;-74
2022/01/31 12:39:42;;;;;;;8.20;3.50;;;8.50;99.90;;;;;;5034754;28;20116;-74
2022/01/31 12:42:46;;;;;;;5.25;3.20;;;8.60;99.90;;;;;;5034242;28;20055;-74
2022/01/31 12:45:15;;;;;;;9.20;3.00;;;8.70;99.90;;;;;;5035624;28;20550;-74
2022/01/31 12:48:10;;;;;;;7.22;3.03;;;8.70;99.90;;;;;;5035897;28;20060;-74
2022/01/31 12:50:59;;;;;;;8.80;2.38;;;8.70;99.90;;;;;;5026474;28;20583;-74
2022/01/31 12:53:35;;;;;;;8.90;3.10;;;8.60;99.90;;;;;;5032613;28;20453;-74
2022/01/31 12:56:15;;;;;;;8.50;3.75;;;8.60;99.90;;;;;;5036785;28;20124;-73
2022/01/31 12:58:44;;;;;;;5.60;2.78;;;8.60;99.90;;;;;;5035795;28;20100;-74
2022/01/31 13:01:17;;;;;;;11.88;4.68;;;8.70;99.90;;;;;;5036452;28;20884;-74
2022/01/31 13:04:03;;;;;;;8.40;2.63;;;8.70;99.90;;;;;;5034650;28;20081;-73
2022/01/31 13:06:41;;;;;;;10.40;3.10;;;8.70;99.90;;;;;;5034200;28;20452;-75
2022/01/31 13:09:17;;;;;;;6.97;2.88;;;8.70;99.90;;;;;;5018554;28;20582;-74
2022/01/31 13:11:51;;;;;;;7.93;2.75;;;8.70;99.90;;;;;;5033674;28;20057;-74
2022/01/31 13:14:24;;;;;;;8.02;3.28;;;8.70;99.90;;;;;;5034447;28;20158;-75
2022/01/31 13:17:05;;;;;;;8.25;2.65;;;8.70;99.90;;;;;;5024701;28;20052;-75
2022/01/31 13:19:34;;;;;;;11.00;2.55;;;8.70;99.90;;;;;;5034158;28;20132;-75
2022/01/31 13:22:03;;;;;;;9.60;2.35;;;8.70;99.90;;;;;;5032171;28;20091;-76
2022/01/31 13:24:37;;;;;;;10.43;2.58;;;8.70;99.90;;;;;;5063657;28;20095;-69
2022/01/31 13:27:04;;;;;;;17.70;4.60;;;8.60;99.90;;;;;;5032450;28;20037;-75